Hyde Park, UT (84318)

9:44 PM MDT on May 06, 2015 (GMT -0600)
Greystone | | Change Station
CLOSE
Current Station
Personal Weather Station
Location: Hyde Park, UT
Elevation: 4948 ft
Nearby Weather Stations

Elev 4948 ft 41.81 °N, 111.80 °W | Updated 4 minutes ago

Overcast
Overcast
47.3 °F
Feels Like 47 °F
N
0.0
Wind Variable Wind from WNW
Gusts 5.0 mph

Today
High -- | Low -- °F
--% Chance of Precip.
Yesterday
High -- | Low -- °F
Precip. -- in
6:17 AM 8:30 PM
Waning Gibbous, 91% visible
Pressure 29.69 in
Visibility 10.0 miles
Clouds Overcast 6000 ft
Windchill 47 °F
Dew Point 45 °F
Humidity 92%
Rainfall 0.15 in
Snow Depth Not available.
UV 0 out of 12
Pollen 7.40 out of 12
Air Quality Not available.
Flu Activity Regional
METAR KLGU 070251Z AUTO 00000KT 10SM OVC060 10/08 A2975 RMK AO2 RAB02E20 SLP052 P0000 60003 T01000078 55004

More Conditions Fewer Conditions

Pressure 29.69 in
Visibility 10.0 miles
Clouds Overcast 6000 ft
Windchill 47 °F
Dew Point 45 °F
Humidity 92%
Rainfall 0.15 in
Snow Depth Not available.
UV 0 out of 12
Pollen 7.40 out of 12
Air Quality Not available.
Flu Activity Regional
METAR KLGU 070251Z AUTO 00000KT 10SM OVC060 10/08 A2975 RMK AO2 RAB02E20 SLP052 P0000 60003 T01000078 55004

More Conditions Fewer Conditions

Nowcast | as of 9:02 PM MDT on May 6, 2015

Scattered showers and thunderstorms will continue to move northerly across portions of northern Utah and southern Wyoming for the next few hours. The strongest activity at 900 PM was moving through Davis County into Morgan and Weber counties. Expect locally heavy rainfall...small hail...gusty winds and cloud to ground lightning with the strongest storms.

×

10-Day Weather Forecast

Almanac

Astronomy

May. 06, 2015 Rise Set
Actual Time
Civil Twilight
Nautical Twilight
Astronomical Twilight
Moon
Length of Visible Light
Length of Day
Tomorrow will be .
, % of the Moon is Illuminated

Today's Extremes

State Highs State Lows

Community

WunderPhotos

Upload Photos

1,819,106 photos uploaded!

WunderBlogs® & News

Nearby

Air Quality

  Air Quality AQ Index Pollutant
Not available.

Snow Depth

Station Depth Elevation

Earthquake Activity

City Distance Mag. Time & Date
Minimum magnitude displayed is 2.5.

Coastal Water Temperatures

Place Temperature

Stations

Nearby Weather Stations

Station Location Temp. Windchill Dew Point Humidity Wind Precip. Elev Updated Type